Time;durP1;ratioP1;P1;durP2;ratioP2;P2;SDS_P1;SDS_P2;PMS_P1;PMS_P2;Temp;Humidity;BMP_temperature;BMP_pressure;BME280_temperature;BME280_humidity;BME280_pressure;Samples;Min_cycle;Max_cycle;Signal;HPM_P1;HPM_P2
2021/10/28 00:12:16;;;;;;;18.63;12.23;;;13.30;99.90;;;;;;4969351;28;20205;-46
2021/10/28 00:14:47;;;;;;;15.07;11.63;;;13.30;99.90;;;;;;4980799;28;20225;-48
2021/10/28 00:17:16;;;;;;;18.43;12.33;;;13.30;99.90;;;;;;5002950;28;20215;-50
2021/10/28 00:19:44;;;;;;;13.57;11.73;;;13.20;99.90;;;;;;5040870;28;20206;-47
2021/10/28 00:22:12;;;;;;;15.87;12.00;;;13.20;99.90;;;;;;5021372;28;20215;-45
2021/10/28 00:24:39;;;;;;;18.80;12.63;;;13.10;99.90;;;;;;5040821;28;20566;-46
2021/10/28 00:27:06;;;;;;;15.80;12.20;;;13.10;99.90;;;;;;5037768;28;20217;-45
2021/10/28 00:29:33;;;;;;;17.93;12.00;;;13.00;99.90;;;;;;5042488;28;20211;-44
2021/10/28 00:32:03;;;;;;;15.40;12.07;;;13.00;99.90;;;;;;5039079;28;20207;-44
2021/10/28 00:34:30;;;;;;;17.83;12.40;;;13.00;99.90;;;;;;5028931;28;20227;-46
2021/10/28 00:36:57;;;;;;;15.93;11.90;;;12.90;99.90;;;;;;5025508;28;20218;-48
2021/10/28 00:39:23;;;;;;;17.53;12.17;;;12.90;99.90;;;;;;5040884;28;20196;-46
2021/10/28 00:41:51;;;;;;;18.30;12.10;;;12.90;99.90;;;;;;5040956;28;20199;-43
2021/10/28 00:44:17;;;;;;;14.47;11.50;;;12.80;99.90;;;;;;5039838;28;20219;-45
2021/10/28 00:46:45;;;;;;;16.73;12.17;;;12.70;99.90;;;;;;5039131;28;20198;-45
2021/10/28 00:49:13;;;;;;;15.57;11.93;;;12.70;99.90;;;;;;5028200;28;20225;-47
2021/10/28 00:51:42;;;;;;;14.60;11.50;;;12.60;99.90;;;;;;5022622;28;20726;-46
2021/10/28 00:54:12;;;;;;;16.30;11.50;;;12.60;99.90;;;;;;5036407;28;20223;-44
2021/10/28 00:56:42;;;;;;;14.03;10.83;;;12.60;99.90;;;;;;5041604;28;20203;-44
2021/10/28 00:59:09;;;;;;;12.47;10.60;;;12.50;99.90;;;;;;5038169;28;20187;-44
2021/10/28 01:01:35;;;;;;;14.03;11.87;;;12.40;99.90;;;;;;5041965;28;20210;-44
2021/10/28 01:04:02;;;;;;;14.63;11.70;;;12.40;99.90;;;;;;5035471;28;20211;-45
2021/10/28 01:06:31;;;;;;;18.23;11.93;;;12.30;99.90;;;;;;5041214;28;20195;-45
2021/10/28 01:08:58;;;;;;;16.73;11.83;;;12.30;99.90;;;;;;5017830;28;20328;-43
2021/10/28 01:11:27;;;;;;;15.17;12.17;;;12.30;99.90;;;;;;5043708;28;20196;-46
2021/10/28 01:13:55;;;;;;;12.23;10.93;;;12.40;99.90;;;;;;5041431;28;20223;-43
2021/10/28 01:16:22;;;;;;;15.23;10.93;;;12.30;99.90;;;;;;5044525;28;20195;-44
2021/10/28 01:18:49;;;;;;;14.20;11.20;;;12.30;99.90;;;;;;5042574;28;20202;-44
2021/10/28 01:21:17;;;;;;;15.23;11.57;;;12.30;99.90;;;;;;5037281;28;20723;-44
2021/10/28 01:23:44;;;;;;;15.37;11.27;;;12.30;99.90;;;;;;5028790;28;20218;-44
2021/10/28 01:26:12;;;;;;;14.10;11.80;;;12.30;99.90;;;;;;5040656;28;20219;-45
2021/10/28 01:28:41;;;;;;;15.60;11.20;;;12.30;99.90;;;;;;5042701;28;20594;-44
2021/10/28 01:31:11;;;;;;;14.60;11.17;;;12.30;99.90;;;;;;5042630;28;20188;-44
2021/10/28 01:33:40;;;;;;;15.63;10.80;;;12.30;99.90;;;;;;5044455;28;20234;-43
2021/10/28 01:36:07;;;;;;;15.40;11.30;;;12.30;99.90;;;;;;5036661;28;20226;-45
2021/10/28 01:38:37;;;;;;;15.30;10.53;;;12.30;99.90;;;;;;5043600;28;20192;-45
2021/10/28 01:41:06;;;;;;;14.30;10.70;;;12.30;99.90;;;;;;5031818;28;20199;-46
2021/10/28 01:43:35;;;;;;;15.83;10.37;;;12.20;99.90;;;;;;5033104;28;20697;-44
2021/10/28 01:46:02;;;;;;;14.60;10.07;;;12.20;99.90;;;;;;5041790;28;20442;-46
2021/10/28 01:48:29;;;;;;;13.53;9.93;;;12.20;99.90;;;;;;5041075;28;20592;-45
2021/10/28 01:50:56;;;;;;;13.53;10.57;;;12.20;99.90;;;;;;5035193;28;20195;-45
2021/10/28 01:53:23;;;;;;;14.60;10.83;;;12.20;99.90;;;;;;5040751;28;20223;-47
2021/10/28 01:55:51;;;;;;;16.10;11.70;;;12.20;99.90;;;;;;5026396;28;20208;-43
2021/10/28 01:58:22;;;;;;;13.60;11.00;;;12.20;99.90;;;;;;5043928;28;20198;-45
2021/10/28 02:00:50;;;;;;;14.20;10.43;;;12.20;99.90;;;;;;5035415;28;21021;-43
2021/10/28 02:03:16;;;;;;;13.80;10.73;;;12.20;99.90;;;;;;5042738;28;20224;-44
2021/10/28 02:05:43;;;;;;;13.00;11.03;;;12.20;99.90;;;;;;5038186;28;20211;-43
2021/10/28 02:08:10;;;;;;;12.60;10.90;;;12.20;99.90;;;;;;5034177;28;20280;-44
2021/10/28 02:10:38;;;;;;;12.10;10.27;;;12.20;99.90;;;;;;5029524;28;20199;-45
2021/10/28 02:13:06;;;;;;;15.57;11.27;;;12.20;99.90;;;;;;5041324;28;20269;-44
2021/10/28 02:15:33;;;;;;;15.27;11.00;;;12.10;99.90;;;;;;5043936;28;20218;-45
2021/10/28 02:18:01;;;;;;;13.60;11.27;;;12.20;99.90;;;;;;5040118;28;20195;-44
2021/10/28 02:20:28;;;;;;;13.60;10.87;;;12.10;99.90;;;;;;5043999;28;20680;-48
2021/10/28 02:22:54;;;;;;;12.33;11.00;;;12.10;99.90;;;;;;5034650;28;20206;-48
2021/10/28 02:25:21;;;;;;;14.77;11.13;;;12.20;99.90;;;;;;5022664;28;20226;-46
2021/10/28 02:27:54;;;;;;;14.77;11.63;;;12.10;99.90;;;;;;5036674;28;20223;-45
2021/10/28 02:30:22;;;;;;;15.13;11.83;;;12.10;99.90;;;;;;5039386;28;20200;-47
2021/10/28 02:32:49;;;;;;;16.27;12.07;;;12.10;99.90;;;;;;5040860;28;20650;-46
2021/10/28 02:35:17;;;;;;;21.17;12.77;;;12.10;99.90;;;;;;5043911;28;20766;-45
2021/10/28 02:37:44;;;;;;;17.00;12.33;;;12.10;99.90;;;;;;5039950;28;20541;-48
2021/10/28 02:40:12;;;;;;;15.63;12.83;;;12.10;99.90;;;;;;5035444;28;20188;-45
2021/10/28 02:42:39;;;;;;;18.70;13.70;;;12.10;99.90;;;;;;5026266;28;20230;-45
2021/10/28 02:45:07;;;;;;;23.60;15.80;;;12.20;99.90;;;;;;5041186;28;20215;-49
2021/10/28 02:47:36;;;;;;;19.70;15.50;;;12.20;99.90;;;;;;5043449;28;20573;-46
2021/10/28 02:50:03;;;;;;;19.33;14.93;;;12.20;99.90;;;;;;5040094;28;20192;-46
2021/10/28 02:52:30;;;;;;;21.00;15.23;;;12.20;99.90;;;;;;5043961;28;20210;-47
2021/10/28 02:54:56;;;;;;;23.80;16.23;;;12.20;99.90;;;;;;5033131;28;20218;-48
2021/10/28 02:57:23;;;;;;;24.37;17.40;;;12.20;99.90;;;;;;5028100;28;20214;-49
2021/10/28 02:59:50;;;;;;;23.80;16.63;;;12.20;99.90;;;;;;5039837;28;20191;-46
2021/10/28 03:02:17;;;;;;;24.10;17.20;;;12.20;99.90;;;;;;5043235;28;20210;-46
2021/10/28 03:04:45;;;;;;;26.27;16.63;;;12.20;99.90;;;;;;5041197;28;20615;-49
2021/10/28 03:07:11;;;;;;;23.73;15.17;;;12.20;99.90;;;;;;5041413;28;20188;-48
2021/10/28 03:09:38;;;;;;;22.83;16.63;;;12.20;99.90;;;;;;5031599;28;20212;-49
2021/10/28 03:12:07;;;;;;;20.53;16.17;;;12.20;99.90;;;;;;5018394;28;20329;-48
2021/10/28 03:14:37;;;;;;;21.93;15.60;;;12.20;99.90;;;;;;5041564;28;20215;-47
2021/10/28 03:17:07;;;;;;;24.27;15.53;;;12.20;99.90;;;;;;5039635;28;20214;-48
2021/10/28 03:19:42;;;;;;;20.37;15.00;;;12.20;99.90;;;;;;5042709;28;20221;-46
2021/10/28 03:27:40;;;;;;;27.37;18.43;;;12.20;99.90;;;;;;5022550;28;20249;-46
2021/10/28 03:30:08;;;;;;;29.20;21.03;;;12.20;99.90;;;;;;5037857;28;20211;-45
2021/10/28 03:32:35;;;;;;;29.17;19.63;;;12.20;99.90;;;;;;5042858;28;20245;-45
2021/10/28 03:35:04;;;;;;;27.27;19.20;;;12.20;99.90;;;;;;5039017;28;20341;-46
2021/10/28 03:37:37;;;;;;;26.70;19.17;;;12.20;99.90;;;;;;5041963;28;20202;-45
2021/10/28 03:40:22;;;;;;;29.50;18.77;;;12.20;99.90;;;;;;5032686;28;20196;-45
2021/10/28 03:43:14;;;;;;;30.37;19.30;;;12.20;99.90;;;;;;5027238;28;20245;-43
2021/10/28 04:06:05;;;;;;;24.37;15.87;;;12.20;99.90;;;;;;5061076;28;20546;-49
2021/10/28 04:19:49;;;;;;;16.40;13.80;;;12.10;99.90;;;;;;5064467;28;20221;-43
2021/10/28 04:30:42;;;;;;;19.00;13.07;;;12.00;99.90;;;;;;4970436;28;20218;-44
2021/10/28 04:33:08;;;;;;;22.37;12.60;;;12.00;99.90;;;;;;4983193;28;20683;-43
2021/10/28 04:35:35;;;;;;;20.63;15.20;;;12.00;99.90;;;;;;5015861;28;20797;-42
2021/10/28 04:38:02;;;;;;;21.87;14.43;;;12.00;99.90;;;;;;5068835;28;20194;-45
2021/10/28 04:40:28;;;;;;;20.70;13.23;;;12.00;99.90;;;;;;5071990;28;20776;-43
2021/10/28 04:42:55;;;;;;;19.20;13.97;;;11.90;99.90;;;;;;5074239;28;20210;-42
2021/10/28 04:45:22;;;;;;;24.07;15.70;;;11.90;99.90;;;;;;5050056;28;20223;-44
2021/10/28 04:47:50;;;;;;;21.10;13.37;;;11.90;99.90;;;;;;5065085;28;20198;-42
2021/10/28 04:50:16;;;;;;;19.17;13.23;;;11.90;99.90;;;;;;5064643;28;20679;-46
2021/10/28 04:52:43;;;;;;;22.97;14.57;;;11.80;99.90;;;;;;5069646;28;20198;-45
2021/10/28 04:55:10;;;;;;;19.13;12.93;;;11.80;99.90;;;;;;5073801;28;20596;-44
2021/10/28 04:57:36;;;;;;;22.87;15.30;;;11.80;99.90;;;;;;5053804;28;20296;-46
2021/10/28 05:00:05;;;;;;;22.90;14.03;;;11.70;99.90;;;;;;5046625;28;20207;-44
2021/10/28 05:02:32;;;;;;;20.87;13.40;;;11.60;99.90;;;;;;5051724;28;20256;-42
2021/10/28 05:05:00;;;;;;;18.33;13.00;;;11.60;99.90;;;;;;5060225;28;20309;-44
2021/10/28 05:07:27;;;;;;;17.07;11.83;;;11.50;99.90;;;;;;5046142;28;20195;-43
2021/10/28 05:09:53;;;;;;;15.53;12.17;;;11.40;99.90;;;;;;5049758;28;20198;-43
2021/10/28 05:12:20;;;;;;;17.37;12.77;;;11.40;99.90;;;;;;5048438;28;20230;-45
2021/10/28 05:14:47;;;;;;;14.13;11.80;;;11.30;99.90;;;;;;5050219;28;20254;-49
2021/10/28 05:17:13;;;;;;;17.67;12.17;;;11.30;99.90;;;;;;5025097;28;20231;-48
2021/10/28 05:19:40;;;;;;;17.60;11.57;;;11.20;99.90;;;;;;5044169;28;20215;-45
2021/10/28 05:22:09;;;;;;;17.60;12.03;;;11.10;99.90;;;;;;5044526;28;20211;-49
2021/10/28 05:24:36;;;;;;;17.70;12.50;;;11.10;99.90;;;;;;5038447;28;20216;-44
2021/10/28 05:27:03;;;;;;;24.63;11.47;;;11.00;99.90;;;;;;5049447;28;20199;-45
2021/10/28 05:29:30;;;;;;;19.43;12.17;;;10.90;99.90;;;;;;5051792;28;20202;-43
2021/10/28 05:31:56;;;;;;;15.17;11.63;;;10.80;99.90;;;;;;5024838;28;20204;-45
2021/10/28 05:34:23;;;;;;;14.80;11.30;;;10.80;99.90;;;;;;5044608;28;20225;-43
2021/10/28 05:36:50;;;;;;;16.43;10.93;;;10.70;99.90;;;;;;5043798;28;20219;-45
2021/10/28 05:39:19;;;;;;;16.17;11.43;;;10.70;99.90;;;;;;5048115;28;20210;-47
2021/10/28 05:41:46;;;;;;;17.47;11.13;;;10.60;99.90;;;;;;5053645;28;20254;-43
2021/10/28 05:44:13;;;;;;;19.60;11.80;;;10.50;99.90;;;;;;5059789;28;20241;-45
2021/10/28 05:46:39;;;;;;;16.17;10.47;;;10.50;99.90;;;;;;5034413;28;20202;-46
2021/10/28 05:49:06;;;;;;;15.80;10.27;;;10.50;99.90;;;;;;5048443;28;20207;-45
2021/10/28 05:51:35;;;;;;;19.40;11.37;;;10.40;99.90;;;;;;5045507;28;20871;-43
2021/10/28 05:54:01;;;;;;;13.17;9.93;;;10.40;99.90;;;;;;5055497;28;20226;-44
2021/10/28 05:56:29;;;;;;;14.97;10.13;;;10.30;99.90;;;;;;5050833;28;20355;-44
2021/10/28 05:58:56;;;;;;;18.03;11.60;;;10.30;99.90;;;;;;5049051;28;20548;-44
2021/10/28 06:01:22;;;;;;;17.23;10.07;;;10.30;99.90;;;;;;5034158;28;20214;-43
2021/10/28 06:03:49;;;;;;;15.13;10.80;;;10.20;99.90;;;;;;5050489;28;20242;-43
2021/10/28 06:06:16;;;;;;;13.17;10.07;;;10.10;99.90;;;;;;5052032;28;20703;-43
2021/10/28 06:08:42;;;;;;;15.53;10.63;;;10.10;99.90;;;;;;5061696;28;20205;-43
2021/10/28 06:11:09;;;;;;;14.87;9.67;;;10.10;99.90;;;;;;5058202;28;20213;-43
2021/10/28 06:13:43;;;;;;;18.07;9.90;;;10.10;99.90;;;;;;5051877;28;20448;-45
2021/10/28 06:16:11;;;;;;;15.03;9.83;;;10.10;99.90;;;;;;5042931;28;20302;-44
2021/10/28 06:18:40;;;;;;;15.37;10.17;;;10.10;99.90;;;;;;5035142;28;20195;-47
2021/10/28 06:21:07;;;;;;;14.83;9.13;;;10.10;99.90;;;;;;5052366;28;20263;-44
2021/10/28 06:23:34;;;;;;;17.33;9.77;;;10.00;99.90;;;;;;5047036;28;20211;-44
2021/10/28 06:26:01;;;;;;;29.27;18.13;;;10.00;99.90;;;;;;5047529;28;20199;-45
2021/10/28 06:28:28;;;;;;;20.60;15.03;;;10.00;99.90;;;;;;5049225;28;20663;-46
2021/10/28 06:30:56;;;;;;;17.20;11.40;;;10.00;99.90;;;;;;5048589;28;20202;-44
2021/10/28 06:33:25;;;;;;;15.53;9.67;;;10.00;99.90;;;;;;5027852;28;20306;-44
2021/10/28 06:35:52;;;;;;;11.97;9.10;;;9.90;99.90;;;;;;5023399;28;20650;-44
2021/10/28 06:38:19;;;;;;;12.93;8.97;;;9.90;99.90;;;;;;5029385;28;20887;-43
2021/10/28 06:40:46;;;;;;;13.20;9.20;;;9.90;99.90;;;;;;5038562;28;20226;-43
2021/10/28 06:43:13;;;;;;;14.20;9.33;;;9.90;99.90;;;;;;5036649;28;20203;-46
2021/10/28 06:45:39;;;;;;;13.80;9.13;;;9.90;99.90;;;;;;5035851;28;20210;-43
2021/10/28 06:48:07;;;;;;;15.10;9.17;;;9.90;99.90;;;;;;5023323;28;20673;-45
2021/10/28 06:50:40;;;;;;;11.17;8.77;;;10.00;99.90;;;;;;5049603;28;20251;-44
2021/10/28 06:53:11;;;;;;;11.47;8.77;;;10.00;99.90;;;;;;5042777;28;20209;-46
2021/10/28 06:55:44;;;;;;;15.57;9.60;;;10.00;99.90;;;;;;5039327;28;20213;-44
2021/10/28 07:03:41;;;;;;;11.87;8.37;;;10.10;99.90;;;;;;5027595;28;20210;-44
2021/10/28 07:06:11;;;;;;;15.43;8.10;;;10.20;99.90;;;;;;5042437;28;20202;-43
2021/10/28 07:08:41;;;;;;;13.53;9.27;;;10.20;99.90;;;;;;5049779;28;20199;-46
2021/10/28 07:11:10;;;;;;;28.60;18.87;;;10.20;99.90;;;;;;5049644;28;20211;-45
2021/10/28 07:13:39;;;;;;;15.57;10.33;;;10.30;99.90;;;;;;5049714;28;20237;-43
2021/10/28 07:16:14;;;;;;;14.47;9.87;;;10.30;99.90;;;;;;5045599;28;20293;-44
2021/10/28 07:18:49;;;;;;;13.47;9.43;;;10.30;99.90;;;;;;5033525;28;20256;-44
2021/10/28 07:32:39;;;;;;;12.63;9.33;;;10.40;99.90;;;;;;5058957;28;20195;-43
2021/10/28 07:35:24;;;;;;;11.17;8.77;;;10.50;99.90;;;;;;5034540;28;20734;-45
2021/10/28 07:57:42;;;;;;;10.77;7.87;;;11.00;99.90;;;;;;5030569;28;20325;-48
2021/10/28 08:04:43;;;;;;;10.40;8.10;;;11.00;99.90;;;;;;5039029;28;20200;-46
2021/10/28 08:17:42;;;;;;;9.63;7.83;;;11.40;99.90;;;;;;5022464;28;20230;-50
2021/10/28 08:20:15;;;;;;;13.07;8.40;;;11.60;99.90;;;;;;5035119;28;20282;-45
2021/10/28 08:22:45;;;;;;;12.67;8.03;;;11.70;99.90;;;;;;5024022;28;20210;-44
2021/10/28 08:30:50;;;;;;;9.33;7.80;;;12.00;99.90;;;;;;5041981;28;20187;-53
2021/10/28 08:33:19;;;;;;;9.23;8.10;;;12.00;99.90;;;;;;5052761;28;20210;-51
2021/10/28 08:35:52;;;;;;;11.80;7.87;;;12.10;99.90;;;;;;5050036;28;20538;-53
2021/10/28 08:38:20;;;;;;;10.33;7.90;;;12.10;99.90;;;;;;5037884;28;20206;-51
2021/10/28 08:40:48;;;;;;;10.07;8.27;;;12.20;99.90;;;;;;5047825;28;20207;-52
2021/10/28 08:43:15;;;;;;;13.30;7.27;;;12.20;99.90;;;;;;5055415;28;20586;-54
2021/10/28 08:45:44;;;;;;;10.03;7.33;;;12.30;99.90;;;;;;5051501;28;20931;-50
2021/10/28 08:48:11;;;;;;;9.87;8.33;;;12.30;99.90;;;;;;5064917;28;20205;-54
2021/10/28 08:50:41;;;;;;;9.47;8.43;;;12.30;99.90;;;;;;5048538;28;20289;-52
2021/10/28 08:53:29;;;;;;;13.00;7.80;;;12.40;99.90;;;;;;5042772;28;20559;-48
2021/10/28 08:55:59;;;;;;;10.43;7.33;;;12.50;99.90;;;;;;5050627;28;20693;-50
2021/10/28 09:23:59;;;;;;;11.60;7.93;;;13.20;99.90;;;;;;5028981;28;20333;-52
2021/10/28 09:26:41;;;;;;;10.13;7.80;;;13.20;99.90;;;;;;5046474;28;20305;-53
2021/10/28 09:29:17;;;;;;;9.23;8.10;;;13.30;99.90;;;;;;5054720;28;20198;-53
2021/10/28 09:31:54;;;;;;;8.37;7.13;;;13.40;99.90;;;;;;5050252;28;20286;-48
2021/10/28 09:34:37;;;;;;;10.73;8.27;;;13.40;99.90;;;;;;5058148;28;20226;-51
2021/10/28 09:45:52;;;;;;;11.43;8.17;;;13.50;99.90;;;;;;5050932;28;20202;-50
2021/10/28 09:49:48;;;;;;;8.43;7.60;;;13.60;99.90;;;;;;5056802;28;20203;-50
2021/10/28 09:51:39;;;;;;;10.33;7.90;;;13.60;99.90;;;;;;5054049;28;20209;-53
2021/10/28 09:54:12;;;;;;;10.83;7.53;;;13.70;99.90;;;;;;5052602;28;20227;-51
2021/10/28 09:59:26;;;;;;;9.57;6.50;;;14.00;99.90;;;;;;5041505;28;20268;-50
2021/10/28 10:02:05;;;;;;;7.60;6.13;;;14.10;99.90;;;;;;5044890;28;20656;-52
2021/10/28 10:04:33;;;;;;;8.43;7.30;;;14.10;99.90;;;;;;5044153;28;20222;-51
2021/10/28 10:07:02;;;;;;;10.20;7.67;;;14.10;99.90;;;;;;5039473;28;20202;-49
2021/10/28 10:09:30;;;;;;;10.13;7.20;;;14.20;99.90;;;;;;5044163;28;20183;-48
2021/10/28 10:11:56;;;;;;;7.57;6.87;;;14.20;99.90;;;;;;5041402;28;20203;-51
2021/10/28 10:14:25;;;;;;;7.77;6.20;;;14.20;99.90;;;;;;5053963;28;20223;-50
2021/10/28 10:16:52;;;;;;;6.87;5.77;;;14.20;99.90;;;;;;5044191;28;20218;-52
2021/10/28 10:19:28;;;;;;;8.50;6.40;;;14.20;99.90;;;;;;5036158;28;20203;-53
2021/10/28 10:21:56;;;;;;;9.03;6.80;;;14.30;99.90;;;;;;5050340;28;20529;-51
2021/10/28 10:24:40;;;;;;;8.87;6.60;;;14.30;99.90;;;;;;5046218;28;20225;-51
2021/10/28 11:22:55;;;;;;;6.50;4.40;;;15.50;99.90;;;;;;5041947;28;20235;-53
2021/10/28 11:25:51;;;;;;;6.67;5.70;;;15.50;99.90;;;;;;5048515;28;20226;-49
2021/10/28 12:44:12;;;;;;;3.17;2.67;;;16.60;99.90;;;;;;5038169;28;20214;-50
2021/10/28 12:47:15;;;;;;;3.33;3.03;;;16.60;99.90;;;;;;5029821;28;20221;-53
2021/10/28 12:50:19;;;;;;;2.67;2.30;;;16.70;99.90;;;;;;5038585;28;20198;-53
2021/10/28 12:53:06;;;;;;;126.10;20.53;;;16.70;99.90;;;;;;5055281;28;20244;-52
2021/10/28 12:55:52;;;;;;;13.60;4.93;;;16.70;99.90;;;;;;5042278;28;20217;-51
2021/10/28 13:04:09;;;;;;;107.03;16.43;;;16.90;99.90;;;;;;5038714;28;20216;-52
2021/10/28 13:50:50;;;;;;;64.63;10.93;;;19.30;99.90;;;;;;5034035;28;20202;-51
2021/10/28 13:56:24;;;;;;;6.07;1.70;;;19.80;99.90;;;;;;5055398;28;20243;-50
2021/10/28 14:23:49;;;;;;;4.20;1.60;;;20.40;99.90;;;;;;5056914;28;20238;-49
2021/10/28 14:37:49;;;;;;;1.57;0.80;;;19.40;99.90;;;;;;5035676;28;20246;-50
2021/10/28 15:02:54;;;;;;;1.00;1.00;;;17.60;99.90;;;;;;5050477;28;20221;-48
2021/10/28 15:30:12;;;;;;;1.80;1.30;;;16.50;99.90;;;;;;5048770;28;20219;-49
2021/10/28 15:35:33;;;;;;;2.27;1.43;;;16.40;99.90;;;;;;5034589;28;20223;-51
2021/10/28 15:38:10;;;;;;;2.23;1.20;;;16.30;99.90;;;;;;5037921;28;20336;-48
2021/10/28 15:55:00;;;;;;;1.40;1.30;;;15.90;99.90;;;;;;5030597;28;20593;-49
2021/10/28 16:00:22;;;;;;;2.83;1.40;;;15.60;99.90;;;;;;5030664;28;20202;-48
2021/10/28 16:22:03;;;;;;;4.70;2.20;;;15.00;99.90;;;;;;5046054;28;20190;-53
2021/10/28 16:24:32;;;;;;;2.13;1.97;;;14.90;99.90;;;;;;5056435;28;20234;-51
2021/10/28 16:27:01;;;;;;;2.50;2.30;;;14.90;99.90;;;;;;5035319;28;20198;-48
2021/10/28 16:29:28;;;;;;;2.53;2.33;;;;;;;;;;5046964;28;20222;-48
2021/10/28 16:31:56;;;;;;;2.70;1.73;;;14.60;99.90;;;;;;5041072;28;20214;-52
2021/10/28 16:34:23;;;;;;;2.87;2.03;;;14.50;99.90;;;;;;5052633;28;20298;-51
2021/10/28 16:36:51;;;;;;;2.20;2.00;;;14.50;99.90;;;;;;5041455;28;20225;-50
2021/10/28 16:39:18;;;;;;;3.47;2.13;;;14.50;99.90;;;;;;5045230;28;20590;-47
2021/10/28 16:41:47;;;;;;;2.47;2.27;;;14.40;99.90;;;;;;5029654;28;20207;-51
2021/10/28 16:44:16;;;;;;;2.80;2.03;;;14.30;99.90;;;;;;5042718;28;20225;-50
2021/10/28 16:46:44;;;;;;;4.10;2.30;;;14.30;99.90;;;;;;5052572;28;20203;-52
2021/10/28 16:49:12;;;;;;;2.43;2.00;;;14.30;99.90;;;;;;5040751;28;20210;-52
2021/10/28 16:51:40;;;;;;;2.70;2.50;;;14.20;99.90;;;;;;5047553;28;20615;-51
2021/10/28 16:54:07;;;;;;;3.43;2.37;;;14.20;99.90;;;;;;5045688;28;20313;-52
2021/10/28 16:56:34;;;;;;;2.43;1.83;;;14.10;99.90;;;;;;5028799;28;20265;-51
2021/10/28 16:59:01;;;;;;;2.10;2.00;;;14.00;99.90;;;;;;5041000;28;20227;-49
2021/10/28 17:01:29;;;;;;;2.47;2.27;;;14.00;99.90;;;;;;5054926;28;20214;-48
2021/10/28 17:03:56;;;;;;;3.10;2.20;;;13.90;99.90;;;;;;5038414;28;20950;-47
2021/10/28 17:06:23;;;;;;;5.40;2.20;;;13.80;99.90;;;;;;5055146;28;20198;-50
2021/10/28 17:08:54;;;;;;;3.17;2.40;;;13.70;99.90;;;;;;5048185;28;20213;-53
2021/10/28 17:11:21;;;;;;;2.50;2.30;;;13.70;99.90;;;;;;5053628;28;20210;-49
2021/10/28 17:13:49;;;;;;;2.57;2.37;;;13.70;99.90;;;;;;5028954;28;20251;-53
2021/10/28 17:16:16;;;;;;;3.80;2.43;;;13.70;99.90;;;;;;5050617;28;20706;-52
2021/10/28 17:18:44;;;;;;;2.63;1.80;;;13.60;99.90;;;;;;5055571;28;20221;-53
2021/10/28 17:21:11;;;;;;;4.10;2.23;;;13.60;99.90;;;;;;5046533;28;20281;-50
2021/10/28 17:23:40;;;;;;;2.53;2.33;;;13.60;99.90;;;;;;5057932;28;20883;-53
2021/10/28 17:26:07;;;;;;;2.50;2.30;;;13.60;99.90;;;;;;5049373;28;20194;-50
2021/10/28 17:28:36;;;;;;;3.33;2.23;;;13.60;99.90;;;;;;5037314;28;20203;-51
2021/10/28 17:31:05;;;;;;;3.20;2.10;;;13.50;99.90;;;;;;5044758;28;20210;-53
2021/10/28 17:33:33;;;;;;;3.27;2.57;;;13.50;99.90;;;;;;5050664;28;20211;-49
2021/10/28 17:36:03;;;;;;;2.80;2.53;;;13.40;99.90;;;;;;5042122;28;20201;-50
2021/10/28 17:38:30;;;;;;;3.63;2.50;;;13.30;99.90;;;;;;5052129;28;20222;-52
2021/10/28 17:40:57;;;;;;;2.50;2.30;;;13.30;99.90;;;;;;5047536;28;20197;-52
2021/10/28 17:43:25;;;;;;;2.90;2.43;;;13.30;99.90;;;;;;5032352;28;20215;-53
2021/10/28 17:45:56;;;;;;;5.07;2.60;;;13.20;99.90;;;;;;5048190;28;20213;-52
2021/10/28 17:48:23;;;;;;;2.53;2.27;;;13.20;99.90;;;;;;5050675;28;20203;-52
2021/10/28 17:50:50;;;;;;;2.57;2.30;;;13.10;99.90;;;;;;5047404;28;20199;-53
2021/10/28 17:53:18;;;;;;;2.57;2.13;;;13.10;99.90;;;;;;5054546;28;20199;-49
2021/10/28 17:55:45;;;;;;;3.00;2.20;;;13.10;99.90;;;;;;5047188;28;20213;-53
2021/10/28 17:58:11;;;;;;;5.23;2.70;;;13.10;99.90;;;;;;5052380;28;20308;-51
2021/10/28 18:00:39;;;;;;;2.97;2.67;;;13.00;99.90;;;;;;5038609;28;20722;-49
2021/10/28 18:03:08;;;;;;;3.13;2.60;;;12.90;99.90;;;;;;5042299;28;20208;-52
2021/10/28 18:05:36;;;;;;;3.90;2.93;;;12.90;99.90;;;;;;5045920;28;20231;-52
2021/10/28 18:08:03;;;;;;;5.90;2.90;;;12.80;99.90;;;;;;5043800;28;20680;-50
2021/10/28 18:10:31;;;;;;;2.77;2.57;;;12.70;99.90;;;;;;5042841;28;20209;-49
2021/10/28 18:12:58;;;;;;;4.50;3.00;;;;;;;;;;5039947;28;20733;-51
2021/10/28 18:15:26;;;;;;;3.27;3.00;;;12.60;99.90;;;;;;5024085;28;20222;-49
2021/10/28 18:17:53;;;;;;;3.57;3.13;;;12.60;99.90;;;;;;5045012;28;20196;-51
2021/10/28 18:20:19;;;;;;;5.37;3.20;;;12.60;99.90;;;;;;5041748;28;20204;-51
2021/10/28 18:22:48;;;;;;;3.57;3.23;;;12.60;99.90;;;;;;5043350;28;20346;-50
2021/10/28 18:25:15;;;;;;;6.23;3.60;;;12.50;99.90;;;;;;5047530;28;20222;-49
2021/10/28 18:27:43;;;;;;;4.40;4.00;;;12.50;99.90;;;;;;5054543;28;20202;-51
2021/10/28 18:30:12;;;;;;;4.53;3.83;;;12.40;99.90;;;;;;5045382;28;20992;-50
2021/10/28 18:32:40;;;;;;;4.33;3.93;;;12.40;99.90;;;;;;5030988;28;20207;-52
2021/10/28 18:35:08;;;;;;;8.00;4.47;;;12.30;99.90;;;;;;5046654;28;20348;-52
2021/10/28 18:37:35;;;;;;;5.50;4.50;;;12.30;99.90;;;;;;5048919;28;20559;-52
2021/10/28 18:40:01;;;;;;;5.70;4.43;;;12.30;99.90;;;;;;5048813;28;20827;-50
2021/10/28 18:42:28;;;;;;;6.37;5.00;;;12.30;99.90;;;;;;5046083;28;20572;-48
2021/10/28 18:44:56;;;;;;;6.23;5.63;;;12.20;99.90;;;;;;5044874;28;20218;-49
2021/10/28 18:47:23;;;;;;;6.10;5.07;;;12.20;99.90;;;;;;5017551;28;20215;-52
2021/10/28 18:49:51;;;;;;;6.13;5.60;;;12.10;99.90;;;;;;5045764;28;21555;-52
2021/10/28 18:52:18;;;;;;;6.90;6.20;;;12.10;99.90;;;;;;5046969;28;20203;-53
2021/10/28 18:54:46;;;;;;;7.47;5.70;;;12.20;99.90;;;;;;5047536;28;20233;-50
2021/10/28 18:57:14;;;;;;;7.53;6.47;;;12.10;99.90;;;;;;5042851;28;20206;-54
2021/10/28 18:59:41;;;;;;;10.07;6.70;;;12.10;99.90;;;;;;5036633;28;20211;-50
2021/10/28 19:02:09;;;;;;;8.47;7.43;;;12.10;99.90;;;;;;5030933;28;20680;-49
2021/10/28 19:04:37;;;;;;;7.87;6.43;;;12.10;99.90;;;;;;5052030;28;20785;-54
2021/10/28 19:07:06;;;;;;;7.90;7.10;;;12.10;99.90;;;;;;5046119;28;20202;-53
2021/10/28 19:09:32;;;;;;;9.50;8.23;;;12.10;99.90;;;;;;5045150;28;20223;-51
2021/10/28 19:12:00;;;;;;;11.97;7.60;;;12.00;99.90;;;;;;5043076;28;20215;-51
2021/10/28 19:14:27;;;;;;;20.60;12.33;;;12.00;99.90;;;;;;5047130;28;20226;-53
2021/10/28 19:16:54;;;;;;;14.87;9.33;;;12.00;99.90;;;;;;5030623;28;20218;-52
2021/10/28 19:19:22;;;;;;;8.80;7.37;;;12.10;99.90;;;;;;5048551;28;20225;-52
2021/10/28 19:21:50;;;;;;;10.70;8.37;;;12.10;99.90;;;;;;5040445;28;20195;-50
2021/10/28 19:24:16;;;;;;;10.83;8.43;;;12.00;99.90;;;;;;5043038;28;20222;-53
2021/10/28 19:26:43;;;;;;;9.77;8.33;;;12.00;99.90;;;;;;5036680;28;20701;-49
2021/10/28 19:29:10;;;;;;;9.97;8.43;;;12.00;99.90;;;;;;5050971;28;20198;-48
2021/10/28 19:31:49;;;;;;;10.50;8.33;;;12.00;99.90;;;;;;5041101;28;20229;-53
2021/10/28 19:34:16;;;;;;;11.73;8.87;;;12.00;99.90;;;;;;5046553;28;20218;-47
2021/10/28 19:36:55;;;;;;;11.57;8.60;;;12.00;99.90;;;;;;5037164;28;20195;-49
2021/10/28 19:39:30;;;;;;;11.10;8.50;;;11.90;99.90;;;;;;5040039;28;20217;-52
2021/10/28 19:42:21;;;;;;;11.97;9.97;;;12.00;99.90;;;;;;5039408;28;20187;-50
2021/10/28 19:45:15;;;;;;;13.00;9.50;;;11.90;99.90;;;;;;5042070;28;20928;-53
2021/10/28 19:47:42;;;;;;;10.10;9.00;;;11.90;99.90;;;;;;5022879;28;20767;-52
2021/10/28 19:50:11;;;;;;;10.83;8.53;;;11.90;99.90;;;;;;5040852;28;20213;-55
2021/10/28 19:52:40;;;;;;;9.53;8.33;;;11.90;99.90;;;;;;5029964;28;20194;-52
2021/10/28 19:55:08;;;;;;;11.57;9.13;;;11.90;99.90;;;;;;5047729;28;20227;-51
2021/10/28 19:57:36;;;;;;;11.57;8.77;;;11.90;99.90;;;;;;5039049;28;20198;-53
2021/10/28 20:00:10;;;;;;;12.03;8.43;;;11.90;99.90;;;;;;5039878;28;20237;-54
2021/10/28 20:03:02;;;;;;;14.60;9.60;;;11.90;99.90;;;;;;5023133;28;20264;-53
2021/10/28 20:05:34;;;;;;;12.23;8.77;;;11.90;99.90;;;;;;5037600;28;20250;-52
2021/10/28 20:08:16;;;;;;;12.30;8.67;;;11.90;99.90;;;;;;5040735;28;20212;-48
2021/10/28 20:21:40;;;;;;;9.23;8.17;;;11.80;99.90;;;;;;5049568;28;20278;-50
2021/10/28 20:24:10;;;;;;;10.57;8.30;;;11.70;99.90;;;;;;5039627;28;20284;-50
2021/10/28 20:26:37;;;;;;;11.93;9.13;;;11.70;99.90;;;;;;5041737;28;20279;-50
2021/10/28 20:29:06;;;;;;;13.17;8.60;;;11.70;99.90;;;;;;5045738;28;20261;-51
2021/10/28 20:31:32;;;;;;;10.47;8.43;;;11.60;99.90;;;;;;5039720;28;20191;-51
2021/10/28 20:34:12;;;;;;;10.50;8.63;;;11.60;99.90;;;;;;5046500;28;20561;-47
2021/10/28 20:39:25;;;;;;;12.00;9.27;;;11.60;99.90;;;;;;5045829;28;20214;-48